Terminal Aerodrome Forecast
Issued by NWS Nashville, TN

Home | Current Version | Previous Version | Text Only | Print | Product List | Glossary On
Versions: 1 2 3 4 5 6 7 8 9 10 11 12 13 14 15 16 17 18 19 20
502
FTUS44 KOHX 251126
TAFCSV
TAF
KCSV 251126Z 2512/2612 00000KT P6SM BKN035
     FM251400 26004KT P6SM BKN040
     FM251800 25005KT P6SM SCT040 BKN100
     FM260100 VRB02KT P6SM SCT250
     FM260600 00000KT 3SM BR SKC=

USA.gov is the U.S. government's official web portal to all federal, state and local government web resources and services.